Pagina principale
METAR-TAF:

METAR-TAF

Aeroporti :

Auckland, Nuova Zelanda

Aeroporto di Auckland

latitudine: 37-01S, longitudine: 174-48E, altezza: 7 m

Osservazione

Il bollettino è stato emesso 14 minuti fa, alle 11:30 UTC
Vento 4 kt da ovest/sud-ovest
Temperature 14°C
Umidità 88%
Pressione 1021 hPa
Visibilità 10 km o più

METAR: NZAA 191130Z AUTO 24004KT 9999 SCT050/// 14/12 Q1021 NOSIG

Ora: 23:44 (11:44 UTC)

Previsione

Il bollettino è stato emesso 36 minuti fa, alle 11:08 UTC
Previsione valida dal 19 alle 12 UTC al 20 alle 12 UTC
Vento 5 kt da ovest/sud-ovest
Visibilità 10 km o più
Nuvoloso ad un'altezza di 3000 ft
rovesci di pioggia
Evoluzione graduale
dal 19 alle 22 UTC al 20 alle 00 UTC
Vento 15 kt da ovest
Evoluzione graduale
dal 20 alle 05 UTC al 20 alle 07 UTC
Vento 5 kt da ovest

TAF: NZAA 191108Z 1912/2012 24005KT 9999 -SHRA BKN030 BECMG 1922/2000 26015KT BECMG 2005/2007 26005KT

Osservazioni e previsioni meteorologiche di più di 4000 aeroporti (messaggi METAR e TAF).

Le stazioni disponibili sono rappresentate dai dischi gialli e rossi sulla carta.

Puntare il mouse per vedere il nome della stazione.

Clicca sopra per visualizzare le osservazioni e previsioni meteorologiche.

Per cambiare la mappa : fare clic sui pulsanti verdi con una croce nera per ingrandire, il pulsante verde con un trattino per diminuire, o sulla freccia verde per le mappe adiacenti.


METAR-TAF: